Pagrindinis puslapis
METAR-TAF:

METAR-TAF

Oro uostai :

Moronis, Komorai

platuma: 11-32S, ilguma: 043-16E, Aukštis: 29 m

Dabartinis oras

Ataskaita buvo paskelbta 11 minutes, ne 05:00 UTC
Vėjas 4 kt iš Pietryčių
Temperatūra 27°C
Drėgmė 66%
Slėgis 1017 hPa
Matomumas 10 km arba daugiau
Mažai debesys ne aukštis 2000 ft

METAR: FMCH 180500Z 13004KT 9999 FEW020 27/20 Q1017 NOSIG

Laikas: 08:11 (05:11 UTC)

Prognozė

Ataskaita buvo paskelbta 12 valandos ir 11 minutes, ne 17:00 UTC
Prognozė galioja nuo 17 metu 18 UTC su 18 metu 24 UTC
Vėjas 3 kt iš Rytų/Pietryčių
Matomumas 10 km arba daugiau
Mažai debesys ne aukštis 2000 ft
Tapsmas
nuo 18 metu 05 UTC su 18 metu 07 UTC
Vėjas 10 kt iš Pietvakarių
Tapsmas
nuo 18 metu 16 UTC su 18 metu 18 UTC
Vėjas 3 kt iš Rytų/Pietryčių

TAF: FMCH 171700Z 1718/1824 11003KT 9999 FEW020 BECMG 1805/1807 22010KT BECMG 1816/1818 12003KT

Orai ataskaitas ir orų prognozės (METAR, TAF).

turimą stotys yra geltonos ir raudonos taškus žemėlapyje.

Perkelti pele per norėdami pamatyti stoties vardą.

Tada spustelėkite, norėdami matyti oro stebėjimo ir prognozės.

Norėdami pakeisti žemėlapį: spustelėkite ant žalios mygtukų su juodo kryžiaus žemyn,; žalią mygtuką su brūkšneliu, jei norite nutolinti; arba žalių rodyklių gretimoms žemėlapius.


METAR-TAF: